createdAt,value
2018-11-26T00:00:50.394Z,101650.77
2018-11-26T00:03:20.021Z,101650.30
2018-11-26T00:05:49.951Z,101654.64
2018-11-26T00:08:28.821Z,101657.08
2018-11-26T00:11:28.967Z,101655.10
2018-11-26T00:13:57.869Z,101658.64
2018-11-26T00:16:27.486Z,101658.58
2018-11-26T00:18:57.379Z,101657.86
2018-11-26T00:21:26.424Z,101662.62
2018-11-26T00:23:55.926Z,101664.06
2018-11-26T00:26:25.044Z,101669.82
2018-11-26T00:28:54.501Z,101663.02
2018-11-26T00:31:23.914Z,101669.05
2018-11-26T00:33:53.294Z,101673.46
2018-11-26T00:36:22.334Z,101675.16
2018-11-26T00:38:52.536Z,101674.16
2018-11-26T00:41:21.904Z,101676.01
2018-11-26T00:43:51.247Z,101674.16
2018-11-26T00:46:20.829Z,101665.53
2018-11-26T00:48:50.330Z,101656.80
2018-11-26T00:51:19.484Z,101666.81
2018-11-26T00:53:48.476Z,101666.69
2018-11-26T00:56:17.192Z,101662.31
2018-11-26T00:58:46.271Z,101660.64
2018-11-26T01:01:15.373Z,101656.75
2018-11-26T01:03:44.093Z,101661.11
2018-11-26T01:06:13.135Z,101656.77
2018-11-26T01:08:41.896Z,101655.79
2018-11-26T01:11:10.800Z,101655.46
2018-11-26T01:13:39.882Z,101654.16
2018-11-26T01:16:08.899Z,101662.76
2018-11-26T01:18:38.211Z,101658.77
2018-11-26T01:21:07.709Z,101655.00
2018-11-26T01:23:36.406Z,101656.76
2018-11-26T01:26:05.523Z,101657.94
2018-11-26T01:28:34.614Z,101662.46
2018-11-26T01:31:04.054Z,101666.15
2018-11-26T01:33:34.593Z,101658.72
2018-11-26T01:36:04.021Z,101662.00
2018-11-26T01:38:33.019Z,101665.02
2018-11-26T01:41:02.129Z,101663.71
2018-11-26T01:43:31.353Z,101670.81
2018-11-26T01:46:01.449Z,101664.77
2018-11-26T01:48:31.472Z,101666.31
2018-11-26T01:51:01.113Z,101663.33
2018-11-26T01:53:30.376Z,101664.17
2018-11-26T01:55:59.517Z,101666.82
2018-11-26T01:58:29.020Z,101663.17
2018-11-26T02:00:57.722Z,101661.39
2018-11-26T02:03:27.243Z,101665.02
2018-11-26T02:05:56.058Z,101661.41
2018-11-26T02:08:25.746Z,101661.19
2018-11-26T02:10:54.963Z,101665.54
2018-11-26T02:13:23.660Z,101664.55
2018-11-26T02:15:52.390Z,101662.41
2018-11-26T02:18:21.353Z,101665.52
2018-11-26T02:20:50.390Z,101662.05
2018-11-26T02:23:19.178Z,101653.69
2018-11-26T02:25:47.896Z,101654.82
2018-11-26T02:28:17.150Z,101653.06
2018-11-26T02:30:45.859Z,101653.82
2018-11-26T02:33:15.599Z,101649.23
2018-11-26T02:35:44.688Z,101652.14
2018-11-26T02:38:13.758Z,101647.36
2018-11-26T02:40:42.780Z,101645.20
2018-11-26T02:43:12.152Z,101646.27
2018-11-26T02:45:40.874Z,101641.83
2018-11-26T02:48:10.545Z,101647.82
2018-11-26T02:50:39.929Z,101647.44
2018-11-26T02:53:09.320Z,101650.87
2018-11-26T02:55:38.981Z,101650.64
2018-11-26T02:58:08.022Z,101650.34
2018-11-26T03:00:37.440Z,101653.58
2018-11-26T03:03:07.067Z,101651.09
2018-11-26T03:05:36.148Z,101645.69
2018-11-26T03:08:05.297Z,101651.65
2018-11-26T03:10:34.791Z,101646.16
2018-11-26T03:13:03.861Z,101648.20
2018-11-26T03:15:32.828Z,101649.89
2018-11-26T03:18:02.223Z,101649.34
2018-11-26T03:20:31.227Z,101646.06
2018-11-26T03:23:00.235Z,101645.91
2018-11-26T03:25:28.949Z,101637.41
2018-11-26T03:27:58.021Z,101639.27
2018-11-26T03:30:27.032Z,101632.98
2018-11-26T03:32:56.007Z,101635.05
2018-11-26T03:35:25.016Z,101640.77
2018-11-26T03:37:53.996Z,101638.00
2018-11-26T03:40:23.371Z,101636.69
2018-11-26T03:42:52.193Z,101639.92
2018-11-26T03:45:21.667Z,101634.50
2018-11-26T03:47:54.638Z,101633.33
2018-11-26T03:50:24.228Z,101638.45
2018-11-26T03:52:53.731Z,101637.33
2018-11-26T03:55:23.827Z,101638.36
2018-11-26T03:57:52.850Z,101644.20
2018-11-26T04:00:21.919Z,101639.36
2018-11-26T04:02:51.502Z,101644.36
2018-11-26T04:05:20.374Z,101639.48
2018-11-26T04:07:49.726Z,101643.25
2018-11-26T04:10:18.430Z,101650.02
2018-11-26T04:12:48.667Z,101653.56
2018-11-26T04:15:18.170Z,101646.45
2018-11-26T04:17:47.777Z,101659.43
2018-11-26T04:20:16.903Z,101653.98
2018-11-26T04:22:46.516Z,101650.70
2018-11-26T04:25:15.927Z,101654.75
2018-11-26T04:27:45.570Z,101657.70
2018-11-26T04:30:15.170Z,101656.45
2018-11-26T04:32:44.607Z,101648.97
2018-11-26T04:35:13.651Z,101651.95
2018-11-26T04:37:42.774Z,101652.31
2018-11-26T04:40:11.943Z,101642.88
2018-11-26T04:42:41.094Z,101648.45
2018-11-26T04:45:10.808Z,101644.94
2018-11-26T04:47:40.227Z,101644.57
2018-11-26T04:50:11.635Z,101644.27
2018-11-26T04:52:40.533Z,101639.48
2018-11-26T04:55:12.166Z,101648.52
2018-11-26T04:57:42.788Z,101644.48
2018-11-26T05:00:13.297Z,101654.37
2018-11-26T05:02:42.053Z,101654.77
2018-11-26T05:05:11.973Z,101658.49
2018-11-26T05:07:40.985Z,101661.88
2018-11-26T05:10:11.290Z,101663.18
2018-11-26T05:12:40.348Z,101667.18
2018-11-26T05:15:13.402Z,101667.18
2018-11-26T05:17:42.485Z,101666.73
2018-11-26T05:20:12.242Z,101671.56
2018-11-26T05:22:40.955Z,101667.18
2018-11-26T05:25:11.767Z,101669.77
2018-11-26T05:27:40.838Z,101673.45
2018-11-26T05:30:14.069Z,101672.47
2018-11-26T05:32:43.752Z,101672.42
2018-11-26T05:35:13.231Z,101673.91
2018-11-26T05:37:42.722Z,101676.70
2018-11-26T05:40:13.725Z,101666.16
2018-11-26T05:42:43.291Z,101668.37
2018-11-26T05:45:14.537Z,101669.82
2018-11-26T05:47:43.612Z,101675.20
2018-11-26T05:50:16.055Z,101682.13
2018-11-26T05:52:45.730Z,101678.28
2018-11-26T05:55:16.697Z,101675.43
2018-11-26T05:57:46.387Z,101671.44
2018-11-26T06:00:44.239Z,101664.86
2018-11-26T06:03:13.760Z,101677.58
2018-11-26T06:05:42.703Z,101675.47
2018-11-26T06:08:11.353Z,101679.22
2018-11-26T06:10:41.184Z,101682.99
2018-11-26T06:13:09.831Z,101682.30
2018-11-26T06:15:39.230Z,101684.87
2018-11-26T06:18:08.281Z,101680.39
2018-11-26T06:20:37.452Z,101680.13
2018-11-26T06:23:06.994Z,101682.84
2018-11-26T06:25:35.816Z,101683.69
2018-11-26T06:28:05.410Z,101689.64
2018-11-26T06:30:34.932Z,101688.66
2018-11-26T06:33:04.424Z,101689.80
2018-11-26T06:35:33.875Z,101691.05
2018-11-26T06:38:03.582Z,101684.80
2018-11-26T06:40:32.668Z,101689.48
2018-11-26T06:43:05.234Z,101687.11
2018-11-26T06:45:34.761Z,101692.70
2018-11-26T06:48:04.588Z,101689.75
2018-11-26T06:50:34.684Z,101695.14
2018-11-26T06:53:03.766Z,101691.20
2018-11-26T06:55:32.957Z,101685.81
2018-11-26T06:58:06.566Z,101691.88
2018-11-26T07:00:36.222Z,101694.91
2018-11-26T07:03:05.923Z,101697.09
2018-11-26T07:05:35.655Z,101701.84
2018-11-26T07:08:04.797Z,101698.36
2018-11-26T07:10:34.925Z,101702.05
2018-11-26T07:13:03.940Z,101706.33
2018-11-26T07:15:32.951Z,101708.16
2018-11-26T07:18:02.108Z,101705.52
2018-11-26T07:20:31.598Z,101714.12
2018-11-26T07:23:00.602Z,101709.23
2018-11-26T07:25:30.094Z,101714.00
2018-11-26T07:27:59.167Z,101713.16
2018-11-26T07:30:29.841Z,101713.61
2018-11-26T07:33:01.777Z,101710.86
2018-11-26T07:35:32.385Z,101707.56
2018-11-26T07:38:01.434Z,101708.55
2018-11-26T07:40:30.778Z,101713.41
2018-11-26T07:43:10.421Z,101708.36
2018-11-26T07:45:39.963Z,101707.13
2018-11-26T07:48:10.187Z,101711.30
2018-11-26T07:50:39.235Z,101710.20
2018-11-26T07:53:09.547Z,101711.52
2018-11-26T07:55:39.577Z,101714.41
2018-11-26T07:58:08.612Z,101712.54
2018-11-26T08:00:38.582Z,101710.80
2018-11-26T08:03:07.865Z,101718.70
2018-11-26T08:05:36.902Z,101725.98
2018-11-26T08:08:06.054Z,101718.70
2018-11-26T08:10:35.458Z,101727.80
2018-11-26T08:13:04.539Z,101724.87
2018-11-26T08:15:33.579Z,101722.94
2018-11-26T08:18:07.179Z,101724.46
2018-11-26T08:20:35.882Z,101727.36
2018-11-26T08:23:05.137Z,101725.35
2018-11-26T08:25:33.907Z,101734.16
2018-11-26T08:28:02.886Z,101741.20
2018-11-26T08:30:31.963Z,101740.91
2018-11-26T08:33:01.869Z,101744.13
2018-11-26T08:35:31.863Z,101743.97
2018-11-26T08:38:18.561Z,101747.12
2018-11-26T08:41:05.171Z,101744.85
2018-11-26T08:43:35.137Z,101744.78
2018-11-26T08:46:10.307Z,101752.00
2018-11-26T08:48:57.670Z,101745.33
2018-11-26T08:51:27.103Z,101743.05
2018-11-26T08:53:55.811Z,101743.66
2018-11-26T08:56:24.575Z,101748.04
2018-11-26T08:58:54.044Z,101749.63
2018-11-26T09:01:42.736Z,101748.91
2018-11-26T09:04:24.015Z,101761.44
2018-11-26T09:06:53.806Z,101762.11
2018-11-26T09:09:23.282Z,101755.82
2018-11-26T09:11:52.373Z,101759.52
2018-11-26T09:14:21.472Z,101753.17
2018-11-26T09:16:50.919Z,101758.96
2018-11-26T09:19:20.559Z,101761.48
2018-11-26T09:21:49.341Z,101761.55
2018-11-26T09:24:18.442Z,101762.09
2018-11-26T09:26:47.469Z,101765.83
2018-11-26T09:29:16.532Z,101763.25
2018-11-26T09:31:45.989Z,101760.65
2018-11-26T09:34:15.706Z,101760.09
2018-11-26T09:36:45.191Z,101760.42
2018-11-26T09:39:14.369Z,101753.13
2018-11-26T09:41:43.643Z,101747.41
2018-11-26T09:44:13.057Z,101753.13
2018-11-26T09:46:42.491Z,101751.99
2018-11-26T09:49:11.547Z,101750.44
2018-11-26T09:51:42.231Z,101746.92
2018-11-26T09:54:10.670Z,101752.13
2018-11-26T09:56:39.370Z,101748.31
2018-11-26T09:59:08.442Z,101746.86
2018-11-26T10:01:37.473Z,101744.56
2018-11-26T10:04:06.819Z,101739.61
2018-11-26T10:06:37.137Z,101738.52
2018-11-26T10:09:09.369Z,101744.44
2018-11-26T10:11:38.418Z,101742.48
2018-11-26T10:14:08.663Z,101741.16
2018-11-26T10:16:38.057Z,101738.23
2018-11-26T10:19:06.746Z,101735.53
2018-11-26T10:21:36.252Z,101730.59
2018-11-26T10:24:06.557Z,101729.10
2018-11-26T10:26:37.310Z,101732.11
2018-11-26T10:29:06.022Z,101724.66
2018-11-26T10:31:35.970Z,101725.27
2018-11-26T10:34:05.051Z,101734.66
2018-11-26T10:36:34.674Z,101727.80
2018-11-26T10:39:04.605Z,101729.10
2018-11-26T10:41:34.676Z,101736.40
2018-11-26T10:44:03.777Z,101726.64
2018-11-26T10:46:32.490Z,101720.72
2018-11-26T10:49:01.545Z,101725.95
2018-11-26T10:51:30.765Z,101726.29
2018-11-26T10:54:00.220Z,101720.21
2018-11-26T10:56:30.243Z,101712.01
2018-11-26T10:58:59.965Z,101712.05
2018-11-26T11:01:47.628Z,101712.76
2018-11-26T11:04:16.727Z,101715.68
2018-11-26T11:06:47.890Z,101713.67
2018-11-26T11:09:22.834Z,101711.25
2018-11-26T11:11:52.484Z,101707.77
2018-11-26T11:14:21.176Z,101713.84
2018-11-26T11:16:51.783Z,101719.00
2018-11-26T11:19:21.232Z,101716.79
2018-11-26T11:21:50.487Z,101720.38
2018-11-26T11:24:20.246Z,101723.53
2018-11-26T11:26:49.318Z,101715.19
2018-11-26T11:29:18.712Z,101721.70
2018-11-26T11:31:47.413Z,101713.64
2018-11-26T11:34:16.157Z,101711.45
2018-11-26T11:36:45.261Z,101715.36
2018-11-26T11:39:13.958Z,101712.22
2018-11-26T11:41:43.033Z,101714.36
2018-11-26T11:44:12.013Z,101714.89
2018-11-26T11:46:40.734Z,101715.27
2018-11-26T11:49:09.414Z,101704.64
2018-11-26T11:51:38.128Z,101702.09
2018-11-26T11:54:07.078Z,101706.25
2018-11-26T11:56:36.191Z,101696.59
2018-11-26T11:59:05.658Z,101698.56
2018-11-26T12:01:34.676Z,101697.89
2018-11-26T12:04:04.289Z,101696.69
2018-11-26T12:06:33.375Z,101696.20
2018-11-26T12:09:03.991Z,101708.34
2018-11-26T12:11:33.611Z,101706.52
2018-11-26T12:14:02.682Z,101703.08
2018-11-26T12:16:31.741Z,101698.91
2018-11-26T12:19:00.783Z,101701.58
2018-11-26T12:21:29.790Z,101705.16
2018-11-26T12:23:58.777Z,101709.84
2018-11-26T12:26:27.878Z,101707.58
2018-11-26T12:28:56.577Z,101711.72
2018-11-26T12:31:25.967Z,101716.27
2018-11-26T12:33:54.944Z,101710.09
2018-11-26T12:36:24.366Z,101700.79
2018-11-26T12:38:53.444Z,101703.96
2018-11-26T12:41:22.451Z,101704.86
2018-11-26T12:43:51.154Z,101701.91
2018-11-26T12:46:20.235Z,101699.28
2018-11-26T12:48:49.275Z,101702.03
2018-11-26T12:51:18.678Z,101703.12
2018-11-26T12:53:47.646Z,101701.86
2018-11-26T12:56:17.353Z,101704.70
2018-11-26T12:58:47.063Z,101698.25
2018-11-26T13:01:16.469Z,101696.22
2018-11-26T13:03:47.518Z,101698.79
2018-11-26T13:06:18.286Z,101704.20
2018-11-26T13:08:47.922Z,101703.69
2018-11-26T13:11:18.191Z,101708.66
2018-11-26T13:13:46.960Z,101712.39
2018-11-26T13:16:15.915Z,101708.22
2018-11-26T13:18:44.616Z,101702.14
2018-11-26T13:21:13.782Z,101702.78
2018-11-26T13:23:43.468Z,101708.31
2018-11-26T13:26:12.171Z,101706.95
2018-11-26T13:28:40.912Z,101700.47
2018-11-26T13:31:09.641Z,101700.47
2018-11-26T13:33:38.361Z,101707.58
2018-11-26T13:36:07.988Z,101708.07
2018-11-26T13:38:37.063Z,101708.72
2018-11-26T13:41:05.768Z,101707.13
2018-11-26T13:43:34.868Z,101713.80
2018-11-26T13:46:03.938Z,101716.80
2018-11-26T13:48:32.779Z,101718.33
2018-11-26T13:51:01.698Z,101720.54
2018-11-26T13:53:30.706Z,101725.30
2018-11-26T13:55:59.712Z,101724.84
2018-11-26T13:58:28.829Z,101726.36
2018-11-26T14:00:58.671Z,101729.88
2018-11-26T14:03:28.047Z,101722.08
2018-11-26T14:05:57.760Z,101727.91
2018-11-26T14:08:28.550Z,101728.83
2018-11-26T14:10:58.155Z,101730.97
2018-11-26T14:13:27.192Z,101730.89
2018-11-26T14:15:55.922Z,101737.23
2018-11-26T14:18:24.936Z,101744.66
2018-11-26T14:20:54.072Z,101739.23
2018-11-26T14:23:28.245Z,101745.73
2018-11-26T14:25:58.314Z,101736.55
2018-11-26T14:28:27.897Z,101737.31
2018-11-26T14:30:58.336Z,101738.91
2018-11-26T14:33:27.673Z,101739.38
2018-11-26T14:35:56.734Z,101743.81
2018-11-26T14:38:26.135Z,101741.67
2018-11-26T14:40:55.442Z,101747.24
2018-11-26T14:43:24.423Z,101749.55
2018-11-26T14:45:54.031Z,101751.52
2018-11-26T14:48:24.305Z,101744.97
2018-11-26T14:50:53.923Z,101743.72
2018-11-26T14:53:23.264Z,101752.69
2018-11-26T14:55:52.199Z,101752.39
2018-11-26T14:58:21.560Z,101752.17
2018-11-26T15:00:50.879Z,101749.95
2018-11-26T15:03:19.951Z,101747.45
2018-11-26T15:05:49.823Z,101753.16
2018-11-26T15:08:19.995Z,101752.37
2018-11-26T15:10:50.824Z,101748.85
2018-11-26T15:13:20.545Z,101746.53
2018-11-26T15:15:51.018Z,101745.89
2018-11-26T15:18:20.433Z,101748.11
2018-11-26T15:20:50.165Z,101749.58
2018-11-26T15:23:19.844Z,101755.58
2018-11-26T15:25:49.591Z,101753.53
2018-11-26T15:28:19.298Z,101750.45
2018-11-26T15:30:49.141Z,101756.29
2018-11-26T15:33:18.432Z,101758.40
2018-11-26T15:35:47.120Z,101762.08
2018-11-26T15:38:16.420Z,101759.19
2018-11-26T15:40:46.112Z,101763.78
2018-11-26T15:43:16.286Z,101765.06
2018-11-26T15:45:46.138Z,101767.34
2018-11-26T15:48:15.756Z,101778.16
2018-11-26T15:50:45.112Z,101776.69
2018-11-26T15:53:14.454Z,101772.48
2018-11-26T15:55:43.856Z,101774.08
2018-11-26T15:58:13.170Z,101777.30
2018-11-26T16:00:42.715Z,101776.63
2018-11-26T16:03:12.436Z,101773.78
2018-11-26T16:05:42.825Z,101777.98
2018-11-26T16:08:14.143Z,101778.54
2018-11-26T16:10:43.887Z,101773.80
2018-11-26T16:13:14.462Z,101773.47
2018-11-26T16:15:44.292Z,101782.27
2018-11-26T16:18:16.245Z,101784.58
2018-11-26T16:20:45.606Z,101780.34
2018-11-26T16:23:14.336Z,101783.48
2018-11-26T16:25:44.347Z,101782.36
2018-11-26T16:28:15.348Z,101787.64
2018-11-26T16:30:44.042Z,101784.50
2018-11-26T16:33:13.075Z,101784.88
2018-11-26T16:35:42.229Z,101783.89
2018-11-26T16:38:11.759Z,101784.64
2018-11-26T16:40:41.495Z,101787.55
2018-11-26T16:43:10.373Z,101786.78
2018-11-26T16:45:39.460Z,101794.07
2018-11-26T16:48:10.624Z,101794.61
2018-11-26T16:50:39.343Z,101794.51
2018-11-26T16:53:08.284Z,101797.95
2018-11-26T16:55:37.039Z,101793.66
2018-11-26T16:58:06.244Z,101790.39
2018-11-26T17:00:35.369Z,101793.81
2018-11-26T17:03:05.852Z,101795.12
2018-11-26T17:05:39.262Z,101796.03
2018-11-26T17:08:15.740Z,101804.48
2018-11-26T17:10:45.091Z,101802.61
2018-11-26T17:13:14.610Z,101810.61
2018-11-26T17:15:43.474Z,101808.38
2018-11-26T17:18:12.193Z,101805.21
2018-11-26T17:20:40.922Z,101808.35
2018-11-26T17:23:09.934Z,101815.92
2018-11-26T17:25:39.108Z,101817.88
2018-11-26T17:28:08.441Z,101811.73
2018-11-26T17:30:38.247Z,101813.73
2018-11-26T17:33:09.767Z,101819.67
2018-11-26T17:35:38.519Z,101819.34
2018-11-26T17:38:08.571Z,101824.91
2018-11-26T17:40:40.035Z,101816.94
2018-11-26T17:43:10.353Z,101825.80
2018-11-26T17:45:39.086Z,101831.80
2018-11-26T17:48:08.691Z,101832.20
2018-11-26T17:50:41.505Z,101823.70
2018-11-26T17:53:21.065Z,101826.63
2018-11-26T17:55:54.031Z,101822.47
2018-11-26T17:58:32.394Z,101826.53
2018-11-26T18:01:28.221Z,101827.59
2018-11-26T18:03:57.823Z,101839.33
2018-11-26T18:06:26.919Z,101835.47
2018-11-26T18:08:55.614Z,101837.45
2018-11-26T18:11:24.314Z,101842.01
2018-11-26T18:13:53.387Z,101844.95
2018-11-26T18:16:23.365Z,101850.37
2018-11-26T18:18:52.675Z,101852.37
2018-11-26T18:21:22.119Z,101854.23
2018-11-26T18:23:51.507Z,101856.49
2018-11-26T18:26:20.975Z,101854.09
2018-11-26T18:28:50.516Z,101861.08
2018-11-26T18:31:19.519Z,101863.22
2018-11-26T18:33:49.203Z,101869.34
2018-11-26T18:36:18.235Z,101869.56
2018-11-26T18:38:47.715Z,101872.81
2018-11-26T18:41:17.015Z,101874.64
2018-11-26T18:43:45.950Z,101875.95
2018-11-26T18:46:14.967Z,101878.55
2018-11-26T18:48:43.757Z,101879.06
2018-11-26T18:51:12.895Z,101885.95
2018-11-26T18:53:42.976Z,101884.08
2018-11-26T18:56:12.127Z,101887.03
2018-11-26T18:58:41.179Z,101889.66
2018-11-26T19:01:10.932Z,101889.32
2018-11-26T19:03:40.019Z,101890.88
2018-11-26T19:06:09.180Z,101895.82
2018-11-26T19:08:38.592Z,101890.09
2018-11-26T19:11:13.455Z,101888.92
2018-11-26T19:14:02.872Z,101896.72
2018-11-26T19:16:40.218Z,101897.52
2018-11-26T19:19:12.031Z,101897.38
2018-11-26T19:21:43.339Z,101899.21
2018-11-26T19:24:12.402Z,101899.61
2018-11-26T19:26:41.490Z,101898.37
2018-11-26T19:29:10.540Z,101899.34
2018-11-26T19:31:39.258Z,101897.71
2018-11-26T19:34:08.844Z,101897.14
2018-11-26T19:36:37.551Z,101892.86
2018-11-26T19:39:09.355Z,101901.68
2018-11-26T19:41:39.437Z,101897.80
2018-11-26T19:44:08.498Z,101899.03
2018-11-26T19:46:37.323Z,101897.13
2018-11-26T19:49:06.204Z,101895.19
2018-11-26T19:51:35.625Z,101901.03
2018-11-26T19:54:09.211Z,101895.77
2018-11-26T19:56:38.292Z,101892.86
2018-11-26T19:59:07.851Z,101895.98
2018-11-26T20:01:37.505Z,101895.64
2018-11-26T20:04:30.972Z,101900.38
2018-11-26T20:07:00.600Z,101902.34
2018-11-26T20:09:30.611Z,101918.31
2018-11-26T20:11:59.336Z,101916.28
2018-11-26T20:14:28.700Z,101919.81
2018-11-26T20:16:57.775Z,101917.78
2018-11-26T20:19:27.780Z,101925.46
2018-11-26T20:21:57.049Z,101925.33
2018-11-26T20:24:26.200Z,101926.03
2018-11-26T20:26:56.185Z,101931.94
2018-11-26T20:29:26.197Z,101927.47
2018-11-26T20:31:55.241Z,101928.95
2018-11-26T20:34:24.903Z,101937.27
2018-11-26T20:36:54.632Z,101944.81
2018-11-26T20:39:25.905Z,101944.01
2018-11-26T20:41:56.577Z,101947.86
2018-11-26T20:44:27.555Z,101944.81
2018-11-26T20:46:56.643Z,101947.23
2018-11-26T20:49:26.655Z,101948.84
2018-11-26T20:51:58.338Z,101943.13
2018-11-26T20:54:31.212Z,101948.22
2018-11-26T20:57:00.610Z,101950.11
2018-11-26T20:59:40.834Z,101947.44
2018-11-26T21:02:10.579Z,101943.86
2018-11-26T21:04:39.296Z,101950.81
2018-11-26T21:07:08.031Z,101953.55
2018-11-26T21:09:37.502Z,101959.33
2018-11-26T21:12:06.252Z,101952.95
2018-11-26T21:14:35.510Z,101959.65
2018-11-26T21:17:05.062Z,101963.55
2018-11-26T21:19:42.914Z,101965.45
2018-11-26T21:22:12.150Z,101971.47
2018-11-26T21:24:41.552Z,101973.33
2018-11-26T21:27:12.467Z,101980.05
2018-11-26T21:29:41.635Z,101980.88
2018-11-26T21:32:10.695Z,101986.05
2018-11-26T21:34:40.199Z,101982.26
2018-11-26T21:37:10.948Z,101989.88
2018-11-26T21:39:40.947Z,101998.53
2018-11-26T21:42:09.672Z,101994.31
2018-11-26T21:44:39.103Z,101983.86
2018-11-26T21:47:07.836Z,101996.91
2018-11-26T21:49:42.044Z,101993.42
2018-11-26T21:52:12.244Z,101993.64
2018-11-26T21:54:42.238Z,101990.48
2018-11-26T21:57:11.355Z,102000.38
2018-11-26T21:59:45.477Z,101997.31
2018-11-26T22:02:14.663Z,101997.06
2018-11-26T22:04:44.906Z,102001.02
2018-11-26T22:07:16.270Z,102006.92
2018-11-26T22:09:45.342Z,102003.33
2018-11-26T22:12:16.002Z,102006.61
2018-11-26T22:14:45.039Z,101999.89
2018-11-26T22:17:14.292Z,102007.16
2018-11-26T22:19:43.335Z,102007.63
2018-11-26T22:22:12.079Z,102012.19
2018-11-26T22:24:40.814Z,102012.40
2018-11-26T22:27:10.390Z,102012.80
2018-11-26T22:29:39.115Z,102006.79
2018-11-26T22:32:08.207Z,102013.66
2018-11-26T22:34:36.919Z,102017.71
2018-11-26T22:37:06.404Z,102016.26
2018-11-26T22:39:35.383Z,102019.34
2018-11-26T22:42:04.654Z,102016.63
2018-11-26T22:44:33.679Z,102017.76
2018-11-26T22:47:03.007Z,102023.19
2018-11-26T22:49:32.084Z,102025.32
2018-11-26T22:52:01.434Z,102025.61
2018-11-26T22:54:32.239Z,102025.81
2018-11-26T22:57:07.217Z,102033.79
2018-11-26T22:59:36.802Z,102038.85
2018-11-26T23:02:06.223Z,102038.50
2018-11-26T23:04:36.608Z,102035.48
2018-11-26T23:07:05.691Z,102034.73
2018-11-26T23:09:37.051Z,102032.66
2018-11-26T23:12:05.756Z,102035.92
2018-11-26T23:14:35.353Z,102038.64
2018-11-26T23:17:05.771Z,102033.15
2018-11-26T23:19:35.737Z,102035.75
2018-11-26T23:22:05.326Z,102038.42
2018-11-26T23:24:34.583Z,102043.83
2018-11-26T23:27:04.490Z,102040.16
2018-11-26T23:29:34.968Z,102044.61
2018-11-26T23:32:04.334Z,102047.59
2018-11-26T23:34:34.044Z,102045.98
2018-11-26T23:37:03.175Z,102045.55
2018-11-26T23:39:31.987Z,102053.57
2018-11-26T23:42:00.977Z,102051.09
2018-11-26T23:44:29.777Z,102041.41
2018-11-26T23:46:59.267Z,102047.48
2018-11-26T23:49:28.002Z,102053.59
2018-11-26T23:51:56.705Z,102053.52
2018-11-26T23:54:25.757Z,102051.05
2018-11-26T23:56:54.840Z,102055.16
2018-11-26T23:59:23.838Z,102061.77
